sensor_id;sensor_type;location;lat;lon;timestamp;P1;durP1;ratioP1;P2;durP2;ratioP2
16450;SDS011;12243;42.708;23.310;2022-12-16T00:01:08;101.47;;;61.77;;
16450;SDS011;12243;42.708;23.310;2022-12-16T00:03:41;98.60;;;60.40;;
16450;SDS011;12243;42.708;23.310;2022-12-16T00:06:12;102.53;;;62.63;;
16450;SDS011;12243;42.708;23.310;2022-12-16T00:08:41;102.83;;;65.87;;
16450;SDS011;12243;42.708;23.310;2022-12-16T00:11:08;108.17;;;65.37;;
16450;SDS011;12243;42.708;23.310;2022-12-16T00:13:36;110.87;;;66.87;;
16450;SDS011;12243;42.708;23.310;2022-12-16T00:16:05;109.50;;;66.93;;
16450;SDS011;12243;42.708;23.310;2022-12-16T00:18:34;107.43;;;63.07;;
16450;SDS011;12243;42.708;23.310;2022-12-16T00:21:01;118.80;;;64.90;;
16450;SDS011;12243;42.708;23.310;2022-12-16T00:23:30;132.83;;;68.70;;
16450;SDS011;12243;42.708;23.310;2022-12-16T00:25:59;138.03;;;72.10;;
16450;SDS011;12243;42.708;23.310;2022-12-16T00:28:27;127.27;;;68.77;;
16450;SDS011;12243;42.708;23.310;2022-12-16T00:30:54;145.17;;;74.33;;
16450;SDS011;12243;42.708;23.310;2022-12-16T00:33:22;149.30;;;74.77;;
16450;SDS011;12243;42.708;23.310;2022-12-16T00:35:50;133.53;;;71.33;;
16450;SDS011;12243;42.708;23.310;2022-12-16T00:38:18;138.30;;;75.17;;
16450;SDS011;12243;42.708;23.310;2022-12-16T00:40:45;137.80;;;72.73;;
16450;SDS011;12243;42.708;23.310;2022-12-16T00:43:14;154.73;;;76.57;;
16450;SDS011;12243;42.708;23.310;2022-12-16T00:45:44;156.50;;;76.10;;
16450;SDS011;12243;42.708;23.310;2022-12-16T00:48:11;158.40;;;77.60;;
16450;SDS011;12243;42.708;23.310;2022-12-16T00:50:38;174.67;;;81.03;;
16450;SDS011;12243;42.708;23.310;2022-12-16T00:53:07;170.67;;;81.43;;
16450;SDS011;12243;42.708;23.310;2022-12-16T00:55:34;183.23;;;82.93;;
16450;SDS011;12243;42.708;23.310;2022-12-16T00:58:01;154.73;;;79.17;;
16450;SDS011;12243;42.708;23.310;2022-12-16T01:00:29;207.53;;;81.70;;
16450;SDS011;12243;42.708;23.310;2022-12-16T01:02:56;174.07;;;78.30;;
16450;SDS011;12243;42.708;23.310;2022-12-16T01:05:24;174.17;;;79.63;;
16450;SDS011;12243;42.708;23.310;2022-12-16T01:07:53;196.27;;;80.33;;
16450;SDS011;12243;42.708;23.310;2022-12-16T01:10:21;169.73;;;77.13;;
16450;SDS011;12243;42.708;23.310;2022-12-16T01:12:49;168.30;;;77.90;;
16450;SDS011;12243;42.708;23.310;2022-12-16T01:15:17;264.40;;;92.93;;
16450;SDS011;12243;42.708;23.310;2022-12-16T01:17:46;292.03;;;100.10;;
16450;SDS011;12243;42.708;23.310;2022-12-16T01:20:13;295.67;;;102.53;;
16450;SDS011;12243;42.708;23.310;2022-12-16T01:22:40;303.33;;;111.83;;
16450;SDS011;12243;42.708;23.310;2022-12-16T01:25:08;289.13;;;109.27;;
16450;SDS011;12243;42.708;23.310;2022-12-16T01:27:40;365.53;;;122.40;;
16450;SDS011;12243;42.708;23.310;2022-12-16T01:30:07;318.17;;;115.10;;
16450;SDS011;12243;42.708;23.310;2022-12-16T01:32:36;424.03;;;120.57;;
16450;SDS011;12243;42.708;23.310;2022-12-16T01:35:06;398.90;;;118.50;;
16450;SDS011;12243;42.708;23.310;2022-12-16T01:37:33;326.07;;;109.00;;
16450;SDS011;12243;42.708;23.310;2022-12-16T01:40:00;328.50;;;104.40;;
16450;SDS011;12243;42.708;23.310;2022-12-16T01:42:27;334.60;;;104.80;;
16450;SDS011;12243;42.708;23.310;2022-12-16T01:47:58;240.17;;;85.93;;
16450;SDS011;12243;42.708;23.310;2022-12-16T01:50:30;210.97;;;92.30;;
16450;SDS011;12243;42.708;23.310;2022-12-16T01:52:58;194.97;;;90.43;;
16450;SDS011;12243;42.708;23.310;2022-12-16T01:55:30;270.93;;;94.67;;
16450;SDS011;12243;42.708;23.310;2022-12-16T01:58:01;213.37;;;86.23;;
16450;SDS011;12243;42.708;23.310;2022-12-16T02:00:32;195.43;;;86.93;;
16450;SDS011;12243;42.708;23.310;2022-12-16T02:03:00;218.10;;;87.57;;
16450;SDS011;12243;42.708;23.310;2022-12-16T02:05:27;199.63;;;78.37;;
16450;SDS011;12243;42.708;23.310;2022-12-16T02:07:59;175.73;;;79.27;;
16450;SDS011;12243;42.708;23.310;2022-12-16T02:10:31;199.90;;;82.00;;
16450;SDS011;12243;42.708;23.310;2022-12-16T02:13:07;165.63;;;76.53;;
16450;SDS011;12243;42.708;23.310;2022-12-16T02:15:41;155.13;;;69.60;;
16450;SDS011;12243;42.708;23.310;2022-12-16T02:18:13;145.70;;;71.20;;
16450;SDS011;12243;42.708;23.310;2022-12-16T02:21:02;132.37;;;68.77;;
16450;SDS011;12243;42.708;23.310;2022-12-16T02:26:43;141.00;;;68.07;;
16450;SDS011;12243;42.708;23.310;2022-12-16T02:29:53;137.23;;;66.00;;
16450;SDS011;12243;42.708;23.310;2022-12-16T02:32:42;148.90;;;69.20;;
16450;SDS011;12243;42.708;23.310;2022-12-16T02:35:18;143.33;;;66.80;;
16450;SDS011;12243;42.708;23.310;2022-12-16T02:37:54;132.73;;;65.93;;
16450;SDS011;12243;42.708;23.310;2022-12-16T02:40:27;146.60;;;67.57;;
16450;SDS011;12243;42.708;23.310;2022-12-16T02:43:02;137.03;;;62.10;;
16450;SDS011;12243;42.708;23.310;2022-12-16T02:45:35;135.37;;;64.33;;
16450;SDS011;12243;42.708;23.310;2022-12-16T02:48:05;133.50;;;67.80;;
16450;SDS011;12243;42.708;23.310;2022-12-16T02:50:34;153.97;;;64.97;;
16450;SDS011;12243;42.708;23.310;2022-12-16T02:53:04;134.43;;;67.40;;
16450;SDS011;12243;42.708;23.310;2022-12-16T02:55:34;123.23;;;61.83;;
16450;SDS011;12243;42.708;23.310;2022-12-16T02:58:14;113.97;;;60.23;;
16450;SDS011;12243;42.708;23.310;2022-12-16T03:00:49;121.57;;;54.70;;
16450;SDS011;12243;42.708;23.310;2022-12-16T03:03:27;107.90;;;51.30;;
16450;SDS011;12243;42.708;23.310;2022-12-16T03:06:00;94.77;;;49.20;;
16450;SDS011;12243;42.708;23.310;2022-12-16T03:08:29;81.30;;;45.63;;
16450;SDS011;12243;42.708;23.310;2022-12-16T03:11:00;92.13;;;43.90;;
16450;SDS011;12243;42.708;23.310;2022-12-16T03:13:30;76.77;;;41.03;;
16450;SDS011;12243;42.708;23.310;2022-12-16T03:16:01;60.33;;;35.97;;
16450;SDS011;12243;42.708;23.310;2022-12-16T03:18:34;78.63;;;39.37;;
16450;SDS011;12243;42.708;23.310;2022-12-16T03:21:05;76.73;;;40.03;;
16450;SDS011;12243;42.708;23.310;2022-12-16T03:23:35;77.60;;;41.50;;
16450;SDS011;12243;42.708;23.310;2022-12-16T03:26:09;74.07;;;38.13;;
16450;SDS011;12243;42.708;23.310;2022-12-16T03:28:43;70.10;;;38.60;;
16450;SDS011;12243;42.708;23.310;2022-12-16T03:31:18;57.77;;;33.83;;
16450;SDS011;12243;42.708;23.310;2022-12-16T03:33:55;62.47;;;34.03;;
16450;SDS011;12243;42.708;23.310;2022-12-16T03:36:25;60.97;;;34.70;;
16450;SDS011;12243;42.708;23.310;2022-12-16T03:38:55;62.57;;;33.83;;
16450;SDS011;12243;42.708;23.310;2022-12-16T03:41:23;60.03;;;32.63;;
16450;SDS011;12243;42.708;23.310;2022-12-16T03:43:51;52.70;;;30.73;;
16450;SDS011;12243;42.708;23.310;2022-12-16T03:46:18;57.33;;;30.70;;
16450;SDS011;12243;42.708;23.310;2022-12-16T03:48:46;59.77;;;31.53;;
16450;SDS011;12243;42.708;23.310;2022-12-16T03:51:16;57.47;;;30.97;;
16450;SDS011;12243;42.708;23.310;2022-12-16T03:53:44;67.53;;;32.70;;
16450;SDS011;12243;42.708;23.310;2022-12-16T03:56:11;74.00;;;33.17;;
16450;SDS011;12243;42.708;23.310;2022-12-16T03:58:39;67.27;;;32.50;;
16450;SDS011;12243;42.708;23.310;2022-12-16T04:01:06;56.60;;;31.03;;
16450;SDS011;12243;42.708;23.310;2022-12-16T04:03:34;61.23;;;30.57;;
16450;SDS011;12243;42.708;23.310;2022-12-16T04:06:01;58.67;;;29.93;;
16450;SDS011;12243;42.708;23.310;2022-12-16T04:08:30;59.63;;;30.67;;
16450;SDS011;12243;42.708;23.310;2022-12-16T04:10:57;58.00;;;30.80;;
16450;SDS011;12243;42.708;23.310;2022-12-16T04:13:41;51.97;;;29.73;;
16450;SDS011;12243;42.708;23.310;2022-12-16T04:16:27;52.00;;;30.40;;
16450;SDS011;12243;42.708;23.310;2022-12-16T04:19:17;56.07;;;31.00;;
16450;SDS011;12243;42.708;23.310;2022-12-16T04:22:11;52.10;;;31.43;;
16450;SDS011;12243;42.708;23.310;2022-12-16T04:24:59;57.50;;;31.03;;
16450;SDS011;12243;42.708;23.310;2022-12-16T04:27:30;55.27;;;31.17;;
16450;SDS011;12243;42.708;23.310;2022-12-16T04:29:57;56.90;;;32.13;;
16450;SDS011;12243;42.708;23.310;2022-12-16T04:32:41;54.67;;;30.60;;
16450;SDS011;12243;42.708;23.310;2022-12-16T04:35:22;59.27;;;33.27;;
16450;SDS011;12243;42.708;23.310;2022-12-16T04:38:07;53.83;;;32.13;;
16450;SDS011;12243;42.708;23.310;2022-12-16T04:40:52;58.27;;;33.47;;
16450;SDS011;12243;42.708;23.310;2022-12-16T04:43:38;61.20;;;34.03;;
16450;SDS011;12243;42.708;23.310;2022-12-16T04:46:24;59.87;;;34.73;;
16450;SDS011;12243;42.708;23.310;2022-12-16T04:49:08;61.33;;;35.90;;
16450;SDS011;12243;42.708;23.310;2022-12-16T04:51:49;64.87;;;35.47;;
16450;SDS011;12243;42.708;23.310;2022-12-16T04:54:33;58.20;;;33.53;;
16450;SDS011;12243;42.708;23.310;2022-12-16T04:57:18;65.80;;;36.50;;
16450;SDS011;12243;42.708;23.310;2022-12-16T05:00:03;62.33;;;35.37;;
16450;SDS011;12243;42.708;23.310;2022-12-16T05:02:48;62.47;;;36.07;;
16450;SDS011;12243;42.708;23.310;2022-12-16T05:05:44;58.67;;;34.87;;
16450;SDS011;12243;42.708;23.310;2022-12-16T05:08:28;57.30;;;34.03;;
16450;SDS011;12243;42.708;23.310;2022-12-16T05:11:12;55.67;;;33.07;;
16450;SDS011;12243;42.708;23.310;2022-12-16T05:13:59;61.83;;;36.17;;
16450;SDS011;12243;42.708;23.310;2022-12-16T05:16:43;67.20;;;37.53;;
16450;SDS011;12243;42.708;23.310;2022-12-16T05:19:28;65.57;;;37.20;;
16450;SDS011;12243;42.708;23.310;2022-12-16T05:22:12;58.50;;;36.23;;
16450;SDS011;12243;42.708;23.310;2022-12-16T05:24:56;57.37;;;35.57;;
16450;SDS011;12243;42.708;23.310;2022-12-16T05:27:41;56.37;;;33.63;;
16450;SDS011;12243;42.708;23.310;2022-12-16T05:30:27;57.40;;;34.03;;
16450;SDS011;12243;42.708;23.310;2022-12-16T05:33:12;51.97;;;32.17;;
16450;SDS011;12243;42.708;23.310;2022-12-16T05:35:56;60.33;;;34.43;;
16450;SDS011;12243;42.708;23.310;2022-12-16T05:38:40;64.80;;;36.90;;
16450;SDS011;12243;42.708;23.310;2022-12-16T05:41:25;56.13;;;34.23;;
16450;SDS011;12243;42.708;23.310;2022-12-16T05:44:11;66.97;;;39.87;;
16450;SDS011;12243;42.708;23.310;2022-12-16T05:46:58;62.20;;;38.27;;
16450;SDS011;12243;42.708;23.310;2022-12-16T05:49:42;64.37;;;39.87;;
16450;SDS011;12243;42.708;23.310;2022-12-16T05:52:26;65.00;;;38.77;;
16450;SDS011;12243;42.708;23.310;2022-12-16T05:55:11;68.10;;;41.80;;
16450;SDS011;12243;42.708;23.310;2022-12-16T05:57:56;75.60;;;43.97;;
16450;SDS011;12243;42.708;23.310;2022-12-16T06:00:44;66.00;;;38.23;;
16450;SDS011;12243;42.708;23.310;2022-12-16T06:03:30;72.10;;;42.30;;
16450;SDS011;12243;42.708;23.310;2022-12-16T06:06:15;71.50;;;42.57;;
16450;SDS011;12243;42.708;23.310;2022-12-16T06:08:59;66.30;;;40.57;;
16450;SDS011;12243;42.708;23.310;2022-12-16T06:11:44;64.73;;;39.23;;
16450;SDS011;12243;42.708;23.310;2022-12-16T06:14:28;66.30;;;38.87;;
16450;SDS011;12243;42.708;23.310;2022-12-16T06:17:13;68.07;;;41.17;;
16450;SDS011;12243;42.708;23.310;2022-12-16T06:20:01;62.53;;;38.17;;
16450;SDS011;12243;42.708;23.310;2022-12-16T06:22:52;68.70;;;39.17;;
16450;SDS011;12243;42.708;23.310;2022-12-16T06:25:38;75.93;;;39.23;;
16450;SDS011;12243;42.708;23.310;2022-12-16T06:28:23;67.87;;;40.83;;
16450;SDS011;12243;42.708;23.310;2022-12-16T06:31:08;67.20;;;41.47;;
16450;SDS011;12243;42.708;23.310;2022-12-16T06:33:53;104.63;;;53.10;;
16450;SDS011;12243;42.708;23.310;2022-12-16T06:36:38;91.37;;;50.63;;
16450;SDS011;12243;42.708;23.310;2022-12-16T06:39:24;75.20;;;43.73;;
16450;SDS011;12243;42.708;23.310;2022-12-16T06:42:08;62.77;;;39.50;;
16450;SDS011;12243;42.708;23.310;2022-12-16T06:44:52;63.80;;;39.40;;
16450;SDS011;12243;42.708;23.310;2022-12-16T06:47:37;81.23;;;43.47;;
16450;SDS011;12243;42.708;23.310;2022-12-16T06:50:22;68.57;;;39.90;;
16450;SDS011;12243;42.708;23.310;2022-12-16T06:53:19;60.50;;;38.17;;
16450;SDS011;12243;42.708;23.310;2022-12-16T06:56:04;62.20;;;38.43;;
16450;SDS011;12243;42.708;23.310;2022-12-16T06:58:48;61.57;;;38.00;;
16450;SDS011;12243;42.708;23.310;2022-12-16T07:01:33;58.20;;;36.57;;
16450;SDS011;12243;42.708;23.310;2022-12-16T07:04:17;58.63;;;37.03;;
16450;SDS011;12243;42.708;23.310;2022-12-16T07:07:02;69.37;;;38.20;;
16450;SDS011;12243;42.708;23.310;2022-12-16T07:09:48;64.67;;;36.27;;
16450;SDS011;12243;42.708;23.310;2022-12-16T07:12:32;59.37;;;35.27;;
16450;SDS011;12243;42.708;23.310;2022-12-16T07:15:16;69.93;;;40.60;;
16450;SDS011;12243;42.708;23.310;2022-12-16T07:18:00;70.70;;;37.20;;
16450;SDS011;12243;42.708;23.310;2022-12-16T07:20:45;65.53;;;38.70;;
16450;SDS011;12243;42.708;23.310;2022-12-16T07:23:29;70.60;;;40.60;;
16450;SDS011;12243;42.708;23.310;2022-12-16T07:26:15;65.37;;;34.87;;
16450;SDS011;12243;42.708;23.310;2022-12-16T07:29:00;65.97;;;35.03;;
16450;SDS011;12243;42.708;23.310;2022-12-16T07:31:50;62.93;;;35.20;;
16450;SDS011;12243;42.708;23.310;2022-12-16T07:34:35;58.80;;;33.40;;
16450;SDS011;12243;42.708;23.310;2022-12-16T07:37:20;59.57;;;33.93;;
16450;SDS011;12243;42.708;23.310;2022-12-16T07:40:05;59.47;;;33.10;;
16450;SDS011;12243;42.708;23.310;2022-12-16T07:42:51;60.80;;;33.90;;
16450;SDS011;12243;42.708;23.310;2022-12-16T07:45:38;68.20;;;33.50;;
16450;SDS011;12243;42.708;23.310;2022-12-16T07:48:23;153.30;;;70.43;;
16450;SDS011;12243;42.708;23.310;2022-12-16T07:51:11;70.13;;;36.23;;
16450;SDS011;12243;42.708;23.310;2022-12-16T07:53:55;86.17;;;42.00;;
16450;SDS011;12243;42.708;23.310;2022-12-16T07:56:39;76.73;;;38.23;;
16450;SDS011;12243;42.708;23.310;2022-12-16T07:59:25;108.97;;;45.93;;
16450;SDS011;12243;42.708;23.310;2022-12-16T08:02:09;71.40;;;38.67;;
16450;SDS011;12243;42.708;23.310;2022-12-16T08:04:53;72.90;;;36.37;;
16450;SDS011;12243;42.708;23.310;2022-12-16T08:07:38;86.30;;;39.23;;
16450;SDS011;12243;42.708;23.310;2022-12-16T08:10:23;83.53;;;42.80;;
16450;SDS011;12243;42.708;23.310;2022-12-16T08:13:09;90.17;;;46.40;;
16450;SDS011;12243;42.708;23.310;2022-12-16T08:15:55;85.30;;;48.53;;
16450;SDS011;12243;42.708;23.310;2022-12-16T08:18:41;93.80;;;47.00;;
16450;SDS011;12243;42.708;23.310;2022-12-16T08:21:25;88.93;;;48.20;;
16450;SDS011;12243;42.708;23.310;2022-12-16T08:24:10;79.77;;;47.57;;
16450;SDS011;12243;42.708;23.310;2022-12-16T08:26:54;77.30;;;44.93;;
16450;SDS011;12243;42.708;23.310;2022-12-16T08:29:38;87.70;;;51.57;;
16450;SDS011;12243;42.708;23.310;2022-12-16T08:32:24;81.10;;;46.60;;
16450;SDS011;12243;42.708;23.310;2022-12-16T08:35:09;78.93;;;46.13;;
16450;SDS011;12243;42.708;23.310;2022-12-16T08:37:53;63.83;;;40.10;;
16450;SDS011;12243;42.708;23.310;2022-12-16T08:40:39;64.80;;;39.73;;
16450;SDS011;12243;42.708;23.310;2022-12-16T08:43:24;61.27;;;39.43;;
16450;SDS011;12243;42.708;23.310;2022-12-16T08:46:08;60.47;;;37.57;;
16450;SDS011;12243;42.708;23.310;2022-12-16T08:48:54;61.00;;;38.17;;
16450;SDS011;12243;42.708;23.310;2022-12-16T08:51:38;64.70;;;39.73;;
16450;SDS011;12243;42.708;23.310;2022-12-16T08:54:24;60.27;;;38.53;;
16450;SDS011;12243;42.708;23.310;2022-12-16T08:57:10;78.03;;;44.20;;
16450;SDS011;12243;42.708;23.310;2022-12-16T08:59:54;65.47;;;37.67;;
16450;SDS011;12243;42.708;23.310;2022-12-16T09:02:38;63.40;;;37.67;;
16450;SDS011;12243;42.708;23.310;2022-12-16T09:05:25;57.23;;;35.10;;
16450;SDS011;12243;42.708;23.310;2022-12-16T09:08:10;59.30;;;35.37;;
16450;SDS011;12243;42.708;23.310;2022-12-16T09:10:54;54.93;;;34.00;;
16450;SDS011;12243;42.708;23.310;2022-12-16T09:13:43;54.47;;;34.07;;
16450;SDS011;12243;42.708;23.310;2022-12-16T09:16:28;51.07;;;32.03;;
16450;SDS011;12243;42.708;23.310;2022-12-16T09:19:13;55.07;;;32.63;;
16450;SDS011;12243;42.708;23.310;2022-12-16T09:21:59;47.70;;;31.23;;
16450;SDS011;12243;42.708;23.310;2022-12-16T09:24:58;53.17;;;32.27;;
16450;SDS011;12243;42.708;23.310;2022-12-16T09:27:42;47.53;;;32.43;;
16450;SDS011;12243;42.708;23.310;2022-12-16T09:30:28;51.73;;;33.13;;
16450;SDS011;12243;42.708;23.310;2022-12-16T09:33:12;53.13;;;33.33;;
16450;SDS011;12243;42.708;23.310;2022-12-16T09:35:57;57.47;;;35.20;;
16450;SDS011;12243;42.708;23.310;2022-12-16T09:38:43;65.80;;;39.47;;
16450;SDS011;12243;42.708;23.310;2022-12-16T09:41:32;70.77;;;40.83;;
16450;SDS011;12243;42.708;23.310;2022-12-16T09:44:25;66.77;;;41.47;;
16450;SDS011;12243;42.708;23.310;2022-12-16T09:47:29;70.83;;;43.13;;
16450;SDS011;12243;42.708;23.310;2022-12-16T09:50:23;72.93;;;43.13;;
16450;SDS011;12243;42.708;23.310;2022-12-16T09:53:09;82.80;;;45.70;;
16450;SDS011;12243;42.708;23.310;2022-12-16T09:55:57;68.03;;;43.13;;
16450;SDS011;12243;42.708;23.310;2022-12-16T09:58:47;60.03;;;38.43;;
16450;SDS011;12243;42.708;23.310;2022-12-16T10:01:36;62.80;;;38.93;;
16450;SDS011;12243;42.708;23.310;2022-12-16T10:04:22;57.77;;;38.63;;
16450;SDS011;12243;42.708;23.310;2022-12-16T10:07:08;56.17;;;37.37;;
16450;SDS011;12243;42.708;23.310;2022-12-16T10:10:00;56.37;;;37.60;;
16450;SDS011;12243;42.708;23.310;2022-12-16T10:12:55;55.10;;;34.93;;
16450;SDS011;12243;42.708;23.310;2022-12-16T10:15:47;56.53;;;37.33;;
16450;SDS011;12243;42.708;23.310;2022-12-16T10:18:42;50.93;;;35.03;;
16450;SDS011;12243;42.708;23.310;2022-12-16T10:21:35;54.83;;;36.07;;
16450;SDS011;12243;42.708;23.310;2022-12-16T10:24:29;50.63;;;35.50;;
16450;SDS011;12243;42.708;23.310;2022-12-16T10:27:28;51.73;;;35.73;;
16450;SDS011;12243;42.708;23.310;2022-12-16T10:30:17;52.23;;;34.77;;
16450;SDS011;12243;42.708;23.310;2022-12-16T10:33:02;52.03;;;35.43;;
16450;SDS011;12243;42.708;23.310;2022-12-16T10:36:03;58.73;;;37.70;;
16450;SDS011;12243;42.708;23.310;2022-12-16T10:38:54;56.63;;;39.00;;
16450;SDS011;12243;42.708;23.310;2022-12-16T10:41:44;57.23;;;37.43;;
16450;SDS011;12243;42.708;23.310;2022-12-16T10:44:34;49.50;;;36.10;;
16450;SDS011;12243;42.708;23.310;2022-12-16T10:47:24;51.73;;;37.70;;
16450;SDS011;12243;42.708;23.310;2022-12-16T10:50:11;46.83;;;35.50;;
16450;SDS011;12243;42.708;23.310;2022-12-16T10:52:57;54.00;;;37.40;;
16450;SDS011;12243;42.708;23.310;2022-12-16T10:55:56;50.17;;;36.13;;
16450;SDS011;12243;42.708;23.310;2022-12-16T10:58:51;51.03;;;35.50;;
16450;SDS011;12243;42.708;23.310;2022-12-16T11:01:37;42.33;;;32.90;;
16450;SDS011;12243;42.708;23.310;2022-12-16T11:04:27;42.27;;;32.97;;
16450;SDS011;12243;42.708;23.310;2022-12-16T11:07:23;44.83;;;33.37;;
16450;SDS011;12243;42.708;23.310;2022-12-16T11:13:24;45.33;;;32.10;;
16450;SDS011;12243;42.708;23.310;2022-12-16T11:16:22;38.90;;;30.97;;
16450;SDS011;12243;42.708;23.310;2022-12-16T11:19:16;43.43;;;31.30;;
16450;SDS011;12243;42.708;23.310;2022-12-16T11:22:06;38.87;;;30.17;;
16450;SDS011;12243;42.708;23.310;2022-12-16T11:25:02;40.83;;;31.93;;
16450;SDS011;12243;42.708;23.310;2022-12-16T11:28:00;43.60;;;32.07;;
16450;SDS011;12243;42.708;23.310;2022-12-16T11:30:48;41.63;;;31.87;;
16450;SDS011;12243;42.708;23.310;2022-12-16T11:33:35;40.60;;;31.87;;
16450;SDS011;12243;42.708;23.310;2022-12-16T11:36:21;37.27;;;29.73;;
16450;SDS011;12243;42.708;23.310;2022-12-16T11:39:15;36.77;;;28.67;;
16450;SDS011;12243;42.708;23.310;2022-12-16T11:42:03;42.20;;;32.80;;
16450;SDS011;12243;42.708;23.310;2022-12-16T11:44:46;35.00;;;25.97;;
16450;SDS011;12243;42.708;23.310;2022-12-16T11:47:34;27.80;;;22.07;;
16450;SDS011;12243;42.708;23.310;2022-12-16T11:50:23;27.33;;;21.67;;
16450;SDS011;12243;42.708;23.310;2022-12-16T11:53:15;24.70;;;20.30;;
16450;SDS011;12243;42.708;23.310;2022-12-16T11:56:11;24.43;;;20.10;;
16450;SDS011;12243;42.708;23.310;2022-12-16T11:58:59;25.00;;;20.33;;
16450;SDS011;12243;42.708;23.310;2022-12-16T12:01:47;27.33;;;21.07;;
16450;SDS011;12243;42.708;23.310;2022-12-16T12:04:38;26.97;;;22.33;;
16450;SDS011;12243;42.708;23.310;2022-12-16T12:07:27;23.50;;;19.73;;
16450;SDS011;12243;42.708;23.310;2022-12-16T12:13:38;24.23;;;18.97;;
16450;SDS011;12243;42.708;23.310;2022-12-16T12:16:43;20.57;;;18.03;;
16450;SDS011;12243;42.708;23.310;2022-12-16T12:19:41;20.37;;;17.53;;
16450;SDS011;12243;42.708;23.310;2022-12-16T12:22:35;25.73;;;17.33;;
16450;SDS011;12243;42.708;23.310;2022-12-16T12:25:23;20.17;;;17.67;;
16450;SDS011;12243;42.708;23.310;2022-12-16T12:28:18;23.73;;;17.77;;
16450;SDS011;12243;42.708;23.310;2022-12-16T12:31:13;25.07;;;17.50;;
16450;SDS011;12243;42.708;23.310;2022-12-16T12:34:09;25.03;;;19.37;;
16450;SDS011;12243;42.708;23.310;2022-12-16T12:37:03;23.47;;;18.93;;
16450;SDS011;12243;42.708;23.310;2022-12-16T12:39:53;26.10;;;21.37;;
16450;SDS011;12243;42.708;23.310;2022-12-16T12:42:54;26.40;;;21.20;;
16450;SDS011;12243;42.708;23.310;2022-12-16T12:45:46;23.03;;;18.00;;
16450;SDS011;12243;42.708;23.310;2022-12-16T12:48:39;20.80;;;17.30;;
16450;SDS011;12243;42.708;23.310;2022-12-16T12:51:34;25.17;;;18.07;;
16450;SDS011;12243;42.708;23.310;2022-12-16T12:54:27;27.17;;;21.33;;
16450;SDS011;12243;42.708;23.310;2022-12-16T12:57:16;22.27;;;16.87;;
16450;SDS011;12243;42.708;23.310;2022-12-16T13:00:08;24.33;;;18.30;;
16450;SDS011;12243;42.708;23.310;2022-12-16T13:03:00;22.67;;;18.03;;
16450;SDS011;12243;42.708;23.310;2022-12-16T13:05:51;28.80;;;17.77;;
16450;SDS011;12243;42.708;23.310;2022-12-16T13:08:44;25.17;;;18.90;;
16450;SDS011;12243;42.708;23.310;2022-12-16T13:11:38;24.77;;;18.40;;
16450;SDS011;12243;42.708;23.310;2022-12-16T13:14:52;23.87;;;17.83;;
16450;SDS011;12243;42.708;23.310;2022-12-16T13:21:08;23.63;;;17.67;;
16450;SDS011;12243;42.708;23.310;2022-12-16T13:27:45;23.93;;;18.33;;
16450;SDS011;12243;42.708;23.310;2022-12-16T13:30:34;24.10;;;18.17;;
16450;SDS011;12243;42.708;23.310;2022-12-16T13:36:22;25.37;;;19.10;;
16450;SDS011;12243;42.708;23.310;2022-12-16T13:39:19;26.50;;;19.07;;
16450;SDS011;12243;42.708;23.310;2022-12-16T13:45:32;27.77;;;20.13;;
16450;SDS011;12243;42.708;23.310;2022-12-16T13:54:45;28.67;;;20.93;;
16450;SDS011;12243;42.708;23.310;2022-12-16T13:57:35;30.20;;;22.20;;
16450;SDS011;12243;42.708;23.310;2022-12-16T14:00:22;32.00;;;22.57;;
16450;SDS011;12243;42.708;23.310;2022-12-16T14:03:09;28.80;;;22.70;;
16450;SDS011;12243;42.708;23.310;2022-12-16T14:05:57;33.50;;;23.43;;
16450;SDS011;12243;42.708;23.310;2022-12-16T14:08:45;35.10;;;24.63;;
16450;SDS011;12243;42.708;23.310;2022-12-16T14:11:35;35.60;;;25.37;;
16450;SDS011;12243;42.708;23.310;2022-12-16T14:14:30;35.07;;;25.63;;
16450;SDS011;12243;42.708;23.310;2022-12-16T14:17:20;38.00;;;27.33;;
16450;SDS011;12243;42.708;23.310;2022-12-16T14:20:26;36.00;;;26.30;;
16450;SDS011;12243;42.708;23.310;2022-12-16T14:23:19;35.93;;;26.30;;
16450;SDS011;12243;42.708;23.310;2022-12-16T14:26:14;38.97;;;28.33;;
16450;SDS011;12243;42.708;23.310;2022-12-16T14:28:59;40.50;;;30.17;;
16450;SDS011;12243;42.708;23.310;2022-12-16T14:31:44;42.30;;;28.00;;
16450;SDS011;12243;42.708;23.310;2022-12-16T14:34:29;37.90;;;27.23;;
16450;SDS011;12243;42.708;23.310;2022-12-16T14:37:16;36.87;;;26.70;;
16450;SDS011;12243;42.708;23.310;2022-12-16T14:40:03;46.43;;;35.97;;
16450;SDS011;12243;42.708;23.310;2022-12-16T14:43:02;43.83;;;30.63;;
16450;SDS011;12243;42.708;23.310;2022-12-16T14:45:55;44.90;;;30.67;;
16450;SDS011;12243;42.708;23.310;2022-12-16T14:48:39;43.53;;;27.00;;
16450;SDS011;12243;42.708;23.310;2022-12-16T14:51:28;44.50;;;30.87;;
16450;SDS011;12243;42.708;23.310;2022-12-16T14:54:21;36.33;;;26.20;;
16450;SDS011;12243;42.708;23.310;2022-12-16T14:57:12;47.20;;;32.00;;
16450;SDS011;12243;42.708;23.310;2022-12-16T15:00:00;38.20;;;26.17;;
16450;SDS011;12243;42.708;23.310;2022-12-16T15:02:55;33.37;;;23.47;;
16450;SDS011;12243;42.708;23.310;2022-12-16T15:05:42;48.03;;;30.70;;
16450;SDS011;12243;42.708;23.310;2022-12-16T15:08:27;29.40;;;20.50;;
16450;SDS011;12243;42.708;23.310;2022-12-16T15:11:17;32.97;;;24.53;;
16450;SDS011;12243;42.708;23.310;2022-12-16T15:14:21;32.53;;;20.27;;
16450;SDS011;12243;42.708;23.310;2022-12-16T15:17:17;36.60;;;24.60;;
16450;SDS011;12243;42.708;23.310;2022-12-16T15:20:04;36.90;;;25.97;;
16450;SDS011;12243;42.708;23.310;2022-12-16T15:22:53;32.37;;;23.87;;
16450;SDS011;12243;42.708;23.310;2022-12-16T15:25:37;34.53;;;22.77;;
16450;SDS011;12243;42.708;23.310;2022-12-16T15:28:23;30.47;;;22.93;;
16450;SDS011;12243;42.708;23.310;2022-12-16T15:31:13;35.93;;;24.00;;
16450;SDS011;12243;42.708;23.310;2022-12-16T15:37:12;30.50;;;21.03;;
16450;SDS011;12243;42.708;23.310;2022-12-16T15:40:02;32.67;;;22.63;;
16450;SDS011;12243;42.708;23.310;2022-12-16T15:42:51;30.30;;;22.10;;
16450;SDS011;12243;42.708;23.310;2022-12-16T15:45:35;33.20;;;22.33;;
16450;SDS011;12243;42.708;23.310;2022-12-16T15:48:20;31.60;;;22.17;;
16450;SDS011;12243;42.708;23.310;2022-12-16T15:51:21;29.57;;;21.60;;
16450;SDS011;12243;42.708;23.310;2022-12-16T15:54:17;28.27;;;20.33;;
16450;SDS011;12243;42.708;23.310;2022-12-16T16:00:16;29.03;;;19.03;;
16450;SDS011;12243;42.708;23.310;2022-12-16T16:03:02;22.60;;;17.37;;
16450;SDS011;12243;42.708;23.310;2022-12-16T16:05:46;24.67;;;16.17;;
16450;SDS011;12243;42.708;23.310;2022-12-16T16:08:32;21.93;;;15.97;;
16450;SDS011;12243;42.708;23.310;2022-12-16T16:11:16;21.97;;;15.33;;
16450;SDS011;12243;42.708;23.310;2022-12-16T16:14:02;19.67;;;14.90;;
16450;SDS011;12243;42.708;23.310;2022-12-16T16:16:46;21.87;;;16.30;;